Weather History for Corning, AR

Change the Weather History Date:

Friday, November 29, 2013

  Actual Average (KARG) Record (KARG)
Temperature  
Mean Temperature 39 °F -  
Max Temperature 50 °F 52 °F 69 °F (1998)
Min Temperature 28 °F 36 °F 26 °F (2003)
Degree Days  
Heating Degree Days 26    
Moisture  
Dew Point 30 °F    
Average Humidity 80    
Maximum Humidity 100    
Minimum Humidity 50    
Precipitation  
Precipitation 0.00 in - - ()
Sea Level Pressure  
Sea Level Pressure 30.50 in    
Wind  
Wind Speed 6 mph (East)    
Max Wind Speed 9 mph    
Max Gust Speed -    
Visibility 10 miles    
Events      
Averages and records for this station are not official NWS values.
T = Trace of Precipitation, MM = Missing Value Source: NWS Daily Summary

Daily Weather History Graph

Daily Weather History Graph

Search for Another Location

Airport:

Trip Planner

Search our weather history database for the weather conditions in past years. The results will help you decide how hot, cold, wet, or windy it might be!

Date:

Astronomy

Nov. 29, 2013 Rise Set
Actual Time 6:54 AM CST 4:47 PM CST
Civil Twilight 6:25 AM CST 5:16 PM CST
Nautical Twilight 5:54 AM CST 5:47 PM CST
Astronomical Twilight 5:22 AM CST 6:18 PM CST
Moon 3:05 AM CST (11/29) 2:27 PM CST (11/29)
Length of Visible Light 10h 50m
Length of Day
9h 53m
Waning Crescent, 14% of the Moon is Illuminated
Nov 29
Waning Crescent
Dec 2
New
Dec 9
First Quarter
Dec 17
Full
Dec 25
Last Quarter

Hourly Weather History & Observations

Time (CST) Temp. Windchill Dew Point Humidity Pressure Visibility Wind Dir Wind Speed Gust Speed Precip Events Conditions
12:15 AM 32.0 °F 28.7 °F 28.4 °F 87% 30.48 in 10.0 mi NNE 3.5 mph - N/A   Clear
12:35 AM 32.0 °F 24.8 °F 28.4 °F 87% 30.48 in 10.0 mi NE 8.1 mph - N/A   Clear
12:55 AM 32.0 °F 25.6 °F 28.4 °F 87% 30.47 in 10.0 mi NE 6.9 mph - N/A   Clear
1:15 AM 30.2 °F 25.4 °F 28.4 °F 93% 30.48 in 10.0 mi ENE 4.6 mph - N/A   Clear
1:35 AM 30.2 °F 24.3 °F 28.4 °F 93% 30.48 in 10.0 mi NE 5.8 mph - N/A   Clear
1:55 AM 30.2 °F 23.4 °F 28.4 °F 93% 30.48 in 10.0 mi NE 6.9 mph - N/A   Clear
2:15 AM 30.2 °F 22.6 °F 28.4 °F 93% 30.49 in 10.0 mi NE 8.1 mph - N/A   Clear
2:35 AM 30.2 °F 24.3 °F 28.4 °F 93% 30.49 in 10.0 mi NE 5.8 mph - N/A   Clear
2:55 AM 30.2 °F 24.3 °F 28.4 °F 93% 30.50 in 10.0 mi NNE 5.8 mph - N/A   Clear
3:15 AM 28.4 °F 24.6 °F 28.4 °F 100% 30.50 in 10.0 mi NNE 3.5 mph - N/A   Clear
3:35 AM 28.4 °F - 26.6 °F 93% 30.50 in 10.0 mi Calm Calm - N/A   Clear
3:55 AM 28.4 °F 24.6 °F 26.6 °F 93% 30.51 in 10.0 mi North 3.5 mph - N/A   Clear
4:15 AM 28.4 °F 24.6 °F 28.4 °F 100% 30.52 in 9.0 mi NNE 3.5 mph - N/A   Clear
4:35 AM 28.4 °F 23.3 °F 26.6 °F 93% 30.52 in 9.0 mi NNE 4.6 mph - N/A   Clear
4:55 AM 28.4 °F 22.2 °F 26.6 °F 93% 30.53 in 10.0 mi North 5.8 mph - N/A   Clear
5:15 AM 28.4 °F 21.2 °F 26.6 °F 93% 30.53 in 10.0 mi NNE 6.9 mph - N/A   Clear
5:35 AM 28.4 °F 21.2 °F 26.6 °F 93% 30.53 in 10.0 mi NE 6.9 mph - N/A   Clear
5:55 AM 28.4 °F 21.2 °F 26.6 °F 93% 30.54 in 10.0 mi NNE 6.9 mph - N/A   Clear
6:15 AM 28.4 °F 21.2 °F 26.6 °F 93% 30.54 in 10.0 mi NE 6.9 mph - N/A   Clear
6:35 AM 28.4 °F 21.2 °F 26.6 °F 93% 30.55 in 10.0 mi NNE 6.9 mph - N/A   Clear
6:55 AM 28.4 °F 21.2 °F 26.6 °F 93% 30.56 in 9.0 mi NNE 6.9 mph - N/A   Clear
7:15 AM 28.4 °F 20.4 °F 26.6 °F 93% 30.56 in 9.0 mi NNE 8.1 mph - N/A   Clear
7:35 AM 28.4 °F 21.2 °F 26.6 °F 93% 30.56 in 9.0 mi NNE 6.9 mph - N/A   Clear
7:55 AM 30.2 °F 21.9 °F 26.6 °F 86% 30.56 in 9.0 mi NNE 9.2 mph - N/A   Clear
8:15 AM 32.0 °F 25.6 °F 28.4 °F 87% 30.56 in 9.0 mi NNE 6.9 mph - N/A   Clear
8:35 AM 32.0 °F 25.6 °F 28.4 °F 87% 30.57 in 9.0 mi NNE 6.9 mph - N/A   Clear
8:55 AM 32.0 °F 26.4 °F 28.4 °F 87% 30.57 in 9.0 mi NE 5.8 mph - N/A   Clear
9:15 AM 33.8 °F 27.7 °F 28.4 °F 81% 30.58 in 10.0 mi NE 6.9 mph - N/A   Clear
9:35 AM 35.6 °F 30.7 °F 30.2 °F 81% 30.58 in 10.0 mi NNE 5.8 mph - N/A   Clear
9:55 AM 35.6 °F 30.7 °F 32.0 °F 87% 30.59 in 9.0 mi NNE 5.8 mph - N/A   Clear
10:15 AM 37.4 °F 34.9 °F 32.0 °F 81% 30.59 in 10.0 mi NNE 3.5 mph - N/A   Clear
10:35 AM 39.2 °F 35.0 °F 32.0 °F 75% 30.59 in 10.0 mi NNE 5.8 mph - N/A   Clear
10:55 AM 39.2 °F 35.0 °F 32.0 °F 75% 30.57 in 9.0 mi NE 5.8 mph - N/A   Clear
11:15 AM 41.0 °F 39.0 °F 32.0 °F 70% 30.57 in 10.0 mi NNE 3.5 mph - N/A   Clear
11:35 AM 42.8 °F 41.1 °F 32.0 °F 66% 30.56 in 10.0 mi SE 3.5 mph - N/A   Clear
11:55 AM 44.6 °F 41.4 °F 32.0 °F 61% 30.55 in 10.0 mi East 5.8 mph - N/A   Clear
12:15 PM 44.6 °F 43.1 °F 32.0 °F 61% 30.54 in 10.0 mi East 3.5 mph - N/A   Clear
12:35 PM 46.4 °F 45.2 °F 32.0 °F 57% 30.53 in 10.0 mi SE 3.5 mph - N/A   Clear
12:55 PM 46.4 °F 45.2 °F 32.0 °F 57% 30.52 in 10.0 mi East 3.5 mph - N/A   Clear
1:15 PM 48.2 °F - 32.0 °F 54% 30.52 in 9.0 mi East 4.6 mph - N/A   Clear
1:35 PM 48.2 °F - 32.0 °F 54% 30.51 in 10.0 mi ESE 3.5 mph - N/A   Clear
1:55 PM 48.2 °F - 32.0 °F 54% 30.50 in 10.0 mi ESE 5.8 mph - N/A   Clear
2:15 PM 48.2 °F - 32.0 °F 54% 30.49 in 10.0 mi East 5.8 mph - N/A   Clear
2:35 PM 50.0 °F - 32.0 °F 50% 30.49 in 10.0 mi ESE 5.8 mph - N/A   Clear
2:55 PM 50.0 °F - 32.0 °F 50% 30.48 in 10.0 mi ESE 4.6 mph - N/A   Clear
3:15 PM 50.0 °F - 32.0 °F 50% 30.48 in 10.0 mi ESE 4.6 mph - N/A   Clear
3:35 PM 50.0 °F - 32.0 °F 50% 30.48 in 10.0 mi ESE 5.8 mph - N/A   Clear
3:55 PM 48.2 °F - 35.6 °F 62% 30.48 in 10.0 mi ESE 6.9 mph - N/A   Clear
4:15 PM 44.6 °F 40.7 °F 35.6 °F 71% 30.47 in 10.0 mi East 6.9 mph - N/A   Clear
4:35 PM 42.8 °F 37.5 °F 35.6 °F 76% 30.46 in 10.0 mi ESE 9.2 mph - N/A   Clear
4:55 PM 39.2 °F 33.6 °F 33.8 °F 81% 30.46 in 10.0 mi ESE 8.1 mph - N/A   Clear
5:15 PM 39.2 °F 33.6 °F 32.0 °F 75% 30.46 in 10.0 mi ESE 8.1 mph - N/A   Clear
5:35 PM 39.2 °F 35.0 °F 33.8 °F 81% 30.46 in 10.0 mi SE 5.8 mph - N/A   Clear
5:55 PM 39.2 °F 34.2 °F 32.0 °F 75% 30.45 in 10.0 mi ESE 6.9 mph - N/A   Clear
6:15 PM 37.4 °F 30.8 °F 32.0 °F 81% 30.44 in 10.0 mi ESE 9.2 mph - N/A   Clear
6:35 PM 37.4 °F 32.1 °F 32.0 °F 81% 30.44 in 10.0 mi ESE 6.9 mph - N/A   Clear
6:55 PM 39.2 °F 35.9 °F 32.0 °F 75% 30.45 in 10.0 mi SE 4.6 mph - N/A   Clear
7:15 PM 39.2 °F 37.0 °F 32.0 °F 75% 30.45 in 10.0 mi SE 3.5 mph - N/A   Clear
7:35 PM 37.4 °F - 32.0 °F 81% 30.45 in 10.0 mi Calm Calm - N/A   Clear
7:55 PM 37.4 °F 34.9 °F 32.0 °F 81% 30.45 in 10.0 mi SE 3.5 mph - N/A   Clear
8:15 PM 37.4 °F 34.9 °F 32.0 °F 81% 30.45 in 10.0 mi SE 3.5 mph - N/A   Clear
8:35 PM 37.4 °F 34.9 °F 32.0 °F 81% 30.45 in 10.0 mi SE 3.5 mph - N/A   Clear
8:55 PM 37.4 °F 32.8 °F 32.0 °F 81% 30.45 in 10.0 mi SE 5.8 mph - N/A   Clear
9:15 PM 33.8 °F 28.6 °F 30.2 °F 87% 30.45 in 10.0 mi ESE 5.8 mph - N/A   Clear
9:35 PM 33.8 °F 27.0 °F 30.2 °F 87% 30.44 in 10.0 mi ESE 8.1 mph - N/A   Clear
9:55 PM 35.6 °F 29.9 °F 32.0 °F 87% 30.44 in 10.0 mi ESE 6.9 mph - N/A   Clear
10:15 PM 35.6 °F 30.7 °F 32.0 °F 87% 30.44 in 10.0 mi SE 5.8 mph - N/A   Clear
10:35 PM 37.4 °F 32.8 °F 32.0 °F 81% 30.44 in 10.0 mi SE 5.8 mph - N/A   Clear
10:55 PM 35.6 °F 30.7 °F 32.0 °F 87% 30.43 in 10.0 mi SE 5.8 mph - N/A   Clear
11:15 PM 32.0 °F 25.6 °F 30.2 °F 93% 30.42 in 10.0 mi ESE 6.9 mph - N/A   Clear
11:35 PM 33.8 °F 28.6 °F 32.0 °F 93% 30.42 in 10.0 mi SE 5.8 mph - N/A   Clear
11:55 PM 32.0 °F 25.6 °F 30.2 °F 93% 30.42 in 10.0 mi SE 6.9 mph - N/A   Clear